sensor_id;sensor_type;location;lat;lon;timestamp;temperature;humidity
12907;DHT22;6521;50.498;8.474;2023-11-21T00:01:54;7.92;93.17
12907;DHT22;6521;50.498;8.474;2023-11-21T00:04:25;7.90;93.15
12907;DHT22;6521;50.498;8.474;2023-11-21T00:06:58;7.93;93.19
12907;DHT22;6521;50.498;8.474;2023-11-21T00:09:29;7.92;93.29
12907;DHT22;6521;50.498;8.474;2023-11-21T00:12:00;7.92;93.28
12907;DHT22;6521;50.498;8.474;2023-11-21T00:14:31;7.89;93.33
12907;DHT22;6521;50.498;8.474;2023-11-21T00:17:01;7.92;93.37
12907;DHT22;6521;50.498;8.474;2023-11-21T00:19:32;7.92;93.40
12907;DHT22;6521;50.498;8.474;2023-11-21T00:22:03;7.93;93.44
12907;DHT22;6521;50.498;8.474;2023-11-21T00:24:34;7.94;93.48
12907;DHT22;6521;50.498;8.474;2023-11-21T00:27:05;7.96;93.54
12907;DHT22;6521;50.498;8.474;2023-11-21T00:29:36;7.99;93.47
12907;DHT22;6521;50.498;8.474;2023-11-21T00:32:07;7.96;93.51
12907;DHT22;6521;50.498;8.474;2023-11-21T00:34:38;7.97;93.56
12907;DHT22;6521;50.498;8.474;2023-11-21T00:37:08;7.99;93.48
12907;DHT22;6521;50.498;8.474;2023-11-21T00:39:39;8.03;93.53
12907;DHT22;6521;50.498;8.474;2023-11-21T00:42:11;8.03;93.56
12907;DHT22;6521;50.498;8.474;2023-11-21T00:44:41;8.02;93.54
12907;DHT22;6521;50.498;8.474;2023-11-21T00:47:13;8.03;93.49
12907;DHT22;6521;50.498;8.474;2023-11-21T00:49:44;8.07;93.52
12907;DHT22;6521;50.498;8.474;2023-11-21T00:52:15;8.10;93.58
12907;DHT22;6521;50.498;8.474;2023-11-21T00:54:46;8.09;93.55
12907;DHT22;6521;50.498;8.474;2023-11-21T00:57:18;8.07;93.61
12907;DHT22;6521;50.498;8.474;2023-11-21T00:59:49;8.07;93.58
12907;DHT22;6521;50.498;8.474;2023-11-21T01:02:20;8.12;93.56
12907;DHT22;6521;50.498;8.474;2023-11-21T01:04:51;8.16;93.36
12907;DHT22;6521;50.498;8.474;2023-11-21T01:07:22;8.13;93.37
12907;DHT22;6521;50.498;8.474;2023-11-21T01:09:53;8.10;93.51
12907;DHT22;6521;50.498;8.474;2023-11-21T01:12:23;8.04;93.65
12907;DHT22;6521;50.498;8.474;2023-11-21T01:14:55;8.04;93.77
12907;DHT22;6521;50.498;8.474;2023-11-21T01:17:26;8.02;93.86
12907;DHT22;6521;50.498;8.474;2023-11-21T01:19:57;7.97;93.89
12907;DHT22;6521;50.498;8.474;2023-11-21T01:22:28;7.96;93.88
12907;DHT22;6521;50.498;8.474;2023-11-21T01:24:59;7.94;93.88
12907;DHT22;6521;50.498;8.474;2023-11-21T01:27:30;7.99;93.92
12907;DHT22;6521;50.498;8.474;2023-11-21T01:30:02;7.96;93.93
12907;DHT22;6521;50.498;8.474;2023-11-21T01:32:33;7.96;93.99
12907;DHT22;6521;50.498;8.474;2023-11-21T01:35:05;7.96;94.01
12907;DHT22;6521;50.498;8.474;2023-11-21T01:37:37;7.96;94.00
12907;DHT22;6521;50.498;8.474;2023-11-21T01:40:08;7.97;94.00
12907;DHT22;6521;50.498;8.474;2023-11-21T01:42:44;7.97;94.02
12907;DHT22;6521;50.498;8.474;2023-11-21T01:45:15;7.97;94.02
12907;DHT22;6521;50.498;8.474;2023-11-21T01:47:46;7.97;94.00
12907;DHT22;6521;50.498;8.474;2023-11-21T01:50:18;8.00;94.00
12907;DHT22;6521;50.498;8.474;2023-11-21T01:52:48;8.00;94.02
12907;DHT22;6521;50.498;8.474;2023-11-21T01:55:20;8.02;93.99
12907;DHT22;6521;50.498;8.474;2023-11-21T01:57:51;8.03;93.95
12907;DHT22;6521;50.498;8.474;2023-11-21T02:00:22;8.07;93.94
12907;DHT22;6521;50.498;8.474;2023-11-21T02:02:54;8.09;93.95
12907;DHT22;6521;50.498;8.474;2023-11-21T02:05:25;8.10;93.91
12907;DHT22;6521;50.498;8.474;2023-11-21T02:07:56;8.10;93.85
12907;DHT22;6521;50.498;8.474;2023-11-21T02:10:27;8.09;93.85
12907;DHT22;6521;50.498;8.474;2023-11-21T02:12:58;8.09;93.85
12907;DHT22;6521;50.498;8.474;2023-11-21T02:15:29;8.13;93.86
12907;DHT22;6521;50.498;8.474;2023-11-21T02:18:00;8.09;93.85
12907;DHT22;6521;50.498;8.474;2023-11-21T02:20:32;8.07;93.86
12907;DHT22;6521;50.498;8.474;2023-11-21T02:23:05;8.07;93.84
12907;DHT22;6521;50.498;8.474;2023-11-21T02:25:35;8.03;93.91
12907;DHT22;6521;50.498;8.474;2023-11-21T02:28:07;8.00;93.99
12907;DHT22;6521;50.498;8.474;2023-11-21T02:30:38;7.97;94.07
12907;DHT22;6521;50.498;8.474;2023-11-21T02:33:09;7.93;94.22
12907;DHT22;6521;50.498;8.474;2023-11-21T02:35:39;7.93;94.32
12907;DHT22;6521;50.498;8.474;2023-11-21T02:38:10;7.86;94.50
12907;DHT22;6521;50.498;8.474;2023-11-21T02:40:42;7.85;94.56
12907;DHT22;6521;50.498;8.474;2023-11-21T02:43:14;7.85;94.65
12907;DHT22;6521;50.498;8.474;2023-11-21T02:45:45;7.82;94.72
12907;DHT22;6521;50.498;8.474;2023-11-21T02:48:17;7.83;94.78
12907;DHT22;6521;50.498;8.474;2023-11-21T02:50:47;7.86;94.81
12907;DHT22;6521;50.498;8.474;2023-11-21T02:53:18;7.79;94.88
12907;DHT22;6521;50.498;8.474;2023-11-21T02:55:49;7.79;94.93
12907;DHT22;6521;50.498;8.474;2023-11-21T02:58:19;7.75;94.92
12907;DHT22;6521;50.498;8.474;2023-11-21T03:00:50;7.76;94.98
12907;DHT22;6521;50.498;8.474;2023-11-21T03:03:22;7.76;94.98
12907;DHT22;6521;50.498;8.474;2023-11-21T03:05:55;7.76;95.01
12907;DHT22;6521;50.498;8.474;2023-11-21T03:08:26;7.75;95.08
12907;DHT22;6521;50.498;8.474;2023-11-21T03:10:56;7.76;94.99
12907;DHT22;6521;50.498;8.474;2023-11-21T03:13:27;7.75;95.02
12907;DHT22;6521;50.498;8.474;2023-11-21T03:15:58;7.76;94.97
12907;DHT22;6521;50.498;8.474;2023-11-21T03:18:29;7.71;94.97
12907;DHT22;6521;50.498;8.474;2023-11-21T03:21:00;7.72;95.02
12907;DHT22;6521;50.498;8.474;2023-11-21T03:23:31;7.73;95.01
12907;DHT22;6521;50.498;8.474;2023-11-21T03:26:03;7.73;94.93
12907;DHT22;6521;50.498;8.474;2023-11-21T03:28:34;7.78;94.94
12907;DHT22;6521;50.498;8.474;2023-11-21T03:31:05;7.76;94.88
12907;DHT22;6521;50.498;8.474;2023-11-21T03:33:36;7.75;94.85
12907;DHT22;6521;50.498;8.474;2023-11-21T03:36:07;7.73;94.83
12907;DHT22;6521;50.498;8.474;2023-11-21T03:38:38;7.75;94.86
12907;DHT22;6521;50.498;8.474;2023-11-21T03:41:09;7.72;94.80
12907;DHT22;6521;50.498;8.474;2023-11-21T03:43:40;7.73;94.81
12907;DHT22;6521;50.498;8.474;2023-11-21T03:46:11;7.72;94.77
12907;DHT22;6521;50.498;8.474;2023-11-21T03:48:42;7.75;94.73
12907;DHT22;6521;50.498;8.474;2023-11-21T03:51:13;7.75;94.69
12907;DHT22;6521;50.498;8.474;2023-11-21T03:53:44;7.73;94.61
12907;DHT22;6521;50.498;8.474;2023-11-21T03:56:14;7.68;94.59
12907;DHT22;6521;50.498;8.474;2023-11-21T03:58:45;7.69;94.59
12907;DHT22;6521;50.498;8.474;2023-11-21T04:01:22;7.71;94.59
12907;DHT22;6521;50.498;8.474;2023-11-21T04:03:53;7.66;94.52
12907;DHT22;6521;50.498;8.474;2023-11-21T04:06:23;7.72;94.53
12907;DHT22;6521;50.498;8.474;2023-11-21T04:08:54;7.71;94.45
12907;DHT22;6521;50.498;8.474;2023-11-21T04:11:25;7.71;94.38
12907;DHT22;6521;50.498;8.474;2023-11-21T04:13:56;7.63;94.31
12907;DHT22;6521;50.498;8.474;2023-11-21T04:16:26;7.59;94.25
12907;DHT22;6521;50.498;8.474;2023-11-21T04:18:57;7.54;94.21
12907;DHT22;6521;50.498;8.474;2023-11-21T04:21:28;7.50;94.17
12907;DHT22;6521;50.498;8.474;2023-11-21T04:23:59;7.45;94.18
12907;DHT22;6521;50.498;8.474;2023-11-21T04:26:30;7.41;94.22
12907;DHT22;6521;50.498;8.474;2023-11-21T04:29:00;7.41;94.16
12907;DHT22;6521;50.498;8.474;2023-11-21T04:31:31;7.40;94.18
12907;DHT22;6521;50.498;8.474;2023-11-21T04:34:02;7.32;94.14
12907;DHT22;6521;50.498;8.474;2023-11-21T04:36:34;7.28;94.13
12907;DHT22;6521;50.498;8.474;2023-11-21T04:39:13;7.30;94.27
12907;DHT22;6521;50.498;8.474;2023-11-21T04:41:44;7.28;94.25
12907;DHT22;6521;50.498;8.474;2023-11-21T04:44:15;7.27;94.28
12907;DHT22;6521;50.498;8.474;2023-11-21T04:46:46;7.27;94.29
12907;DHT22;6521;50.498;8.474;2023-11-21T04:49:17;7.30;94.26
12907;DHT22;6521;50.498;8.474;2023-11-21T04:51:48;7.27;94.24
12907;DHT22;6521;50.498;8.474;2023-11-21T04:54:18;7.25;94.16
12907;DHT22;6521;50.498;8.474;2023-11-21T04:56:49;7.21;94.19
12907;DHT22;6521;50.498;8.474;2023-11-21T04:59:20;7.18;94.22
12907;DHT22;6521;50.498;8.474;2023-11-21T05:01:50;7.20;94.22
12907;DHT22;6521;50.498;8.474;2023-11-21T05:04:21;7.23;94.24
12907;DHT22;6521;50.498;8.474;2023-11-21T05:06:52;7.21;94.22
12907;DHT22;6521;50.498;8.474;2023-11-21T05:09:23;7.21;94.23
12907;DHT22;6521;50.498;8.474;2023-11-21T05:11:54;7.18;94.28
12907;DHT22;6521;50.498;8.474;2023-11-21T05:14:25;7.21;94.32
12907;DHT22;6521;50.498;8.474;2023-11-21T05:16:55;7.21;94.30
12907;DHT22;6521;50.498;8.474;2023-11-21T05:19:26;7.25;94.33
12907;DHT22;6521;50.498;8.474;2023-11-21T05:21:57;7.30;94.34
12907;DHT22;6521;50.498;8.474;2023-11-21T05:24:29;7.28;94.32
12907;DHT22;6521;50.498;8.474;2023-11-21T05:27:00;7.31;94.31
12907;DHT22;6521;50.498;8.474;2023-11-21T05:29:30;7.31;94.34
12907;DHT22;6521;50.498;8.474;2023-11-21T05:32:03;7.32;94.30
12907;DHT22;6521;50.498;8.474;2023-11-21T05:34:33;7.35;94.32
12907;DHT22;6521;50.498;8.474;2023-11-21T05:37:04;7.35;94.30
12907;DHT22;6521;50.498;8.474;2023-11-21T05:39:36;7.35;94.29
12907;DHT22;6521;50.498;8.474;2023-11-21T05:42:06;7.38;94.31
12907;DHT22;6521;50.498;8.474;2023-11-21T05:44:41;7.35;94.24
12907;DHT22;6521;50.498;8.474;2023-11-21T05:47:12;7.35;94.24
12907;DHT22;6521;50.498;8.474;2023-11-21T05:49:44;7.36;94.25
12907;DHT22;6521;50.498;8.474;2023-11-21T05:52:15;7.34;94.16
12907;DHT22;6521;50.498;8.474;2023-11-21T05:54:46;7.32;94.13
12907;DHT22;6521;50.498;8.474;2023-11-21T05:57:17;7.30;94.14
12907;DHT22;6521;50.498;8.474;2023-11-21T05:59:48;7.31;94.20
12907;DHT22;6521;50.498;8.474;2023-11-21T06:02:19;7.34;94.11
12907;DHT22;6521;50.498;8.474;2023-11-21T06:04:50;7.30;94.17
12907;DHT22;6521;50.498;8.474;2023-11-21T06:07:20;7.30;94.14
12907;DHT22;6521;50.498;8.474;2023-11-21T06:09:51;7.32;94.20
12907;DHT22;6521;50.498;8.474;2023-11-21T06:12:22;7.34;94.20
12907;DHT22;6521;50.498;8.474;2023-11-21T06:14:52;7.36;94.19
12907;DHT22;6521;50.498;8.474;2023-11-21T06:17:23;7.38;94.21
12907;DHT22;6521;50.498;8.474;2023-11-21T06:19:55;7.38;94.13
12907;DHT22;6521;50.498;8.474;2023-11-21T06:22:26;7.36;94.11
12907;DHT22;6521;50.498;8.474;2023-11-21T06:24:57;7.35;94.10
12907;DHT22;6521;50.498;8.474;2023-11-21T06:27:27;7.31;94.09
12907;DHT22;6521;50.498;8.474;2023-11-21T06:29:58;7.28;94.09
12907;DHT22;6521;50.498;8.474;2023-11-21T06:32:29;7.25;94.08
12907;DHT22;6521;50.498;8.474;2023-11-21T06:35:00;7.25;94.14
12907;DHT22;6521;50.498;8.474;2023-11-21T06:37:31;7.23;94.13
12907;DHT22;6521;50.498;8.474;2023-11-21T06:40:02;7.23;94.17
12907;DHT22;6521;50.498;8.474;2023-11-21T06:42:34;7.24;94.15
12907;DHT22;6521;50.498;8.474;2023-11-21T06:45:05;7.24;94.12
12907;DHT22;6521;50.498;8.474;2023-11-21T06:47:37;7.27;94.10
12907;DHT22;6521;50.498;8.474;2023-11-21T06:50:08;7.25;94.07
12907;DHT22;6521;50.498;8.474;2023-11-21T06:52:39;7.27;94.09
12907;DHT22;6521;50.498;8.474;2023-11-21T06:55:10;7.28;94.03
12907;DHT22;6521;50.498;8.474;2023-11-21T06:57:41;7.28;94.04
12907;DHT22;6521;50.498;8.474;2023-11-21T07:00:12;7.31;94.06
12907;DHT22;6521;50.498;8.474;2023-11-21T07:02:44;7.35;94.07
12907;DHT22;6521;50.498;8.474;2023-11-21T07:05:15;7.38;94.00
12907;DHT22;6521;50.498;8.474;2023-11-21T07:07:46;7.36;94.01
12907;DHT22;6521;50.498;8.474;2023-11-21T07:10:16;7.36;94.01
12907;DHT22;6521;50.498;8.474;2023-11-21T07:12:47;7.36;94.02
12907;DHT22;6521;50.498;8.474;2023-11-21T07:15:18;7.38;93.98
12907;DHT22;6521;50.498;8.474;2023-11-21T07:17:49;7.44;93.82
12907;DHT22;6521;50.498;8.474;2023-11-21T07:20:21;7.41;93.81
12907;DHT22;6521;50.498;8.474;2023-11-21T07:22:51;7.42;93.82
12907;DHT22;6521;50.498;8.474;2023-11-21T07:25:22;7.47;93.84
12907;DHT22;6521;50.498;8.474;2023-11-21T07:27:53;7.44;93.70
12907;DHT22;6521;50.498;8.474;2023-11-21T07:30:25;7.45;93.63
12907;DHT22;6521;50.498;8.474;2023-11-21T07:32:56;7.47;93.60
12907;DHT22;6521;50.498;8.474;2023-11-21T07:35:26;7.44;93.66
12907;DHT22;6521;50.498;8.474;2023-11-21T07:37:57;7.47;93.69
12907;DHT22;6521;50.498;8.474;2023-11-21T07:40:28;7.42;93.70
12907;DHT22;6521;50.498;8.474;2023-11-21T07:42:59;7.42;93.77
12907;DHT22;6521;50.498;8.474;2023-11-21T07:45:30;7.45;93.83
12907;DHT22;6521;50.498;8.474;2023-11-21T07:48:00;7.47;93.83
12907;DHT22;6521;50.498;8.474;2023-11-21T07:50:33;7.52;93.81
12907;DHT22;6521;50.498;8.474;2023-11-21T07:53:04;7.54;93.84
12907;DHT22;6521;50.498;8.474;2023-11-21T07:55:36;7.59;93.83
12907;DHT22;6521;50.498;8.474;2023-11-21T07:58:06;7.62;93.86
12907;DHT22;6521;50.498;8.474;2023-11-21T08:00:38;7.68;93.81
12907;DHT22;6521;50.498;8.474;2023-11-21T08:03:09;7.72;93.82
12907;DHT22;6521;50.498;8.474;2023-11-21T08:05:42;7.81;93.69
12907;DHT22;6521;50.498;8.474;2023-11-21T08:08:13;7.79;93.70
12907;DHT22;6521;50.498;8.474;2023-11-21T08:10:44;7.87;93.56
12907;DHT22;6521;50.498;8.474;2023-11-21T08:13:27;7.87;93.46
12907;DHT22;6521;50.498;8.474;2023-11-21T08:15:58;7.89;93.50
12907;DHT22;6521;50.498;8.474;2023-11-21T08:18:33;7.96;93.49
12907;DHT22;6521;50.498;8.474;2023-11-21T08:21:04;7.99;93.30
12907;DHT22;6521;50.498;8.474;2023-11-21T08:23:35;7.99;93.34
12907;DHT22;6521;50.498;8.474;2023-11-21T08:26:06;8.00;93.36
12907;DHT22;6521;50.498;8.474;2023-11-21T08:28:37;8.09;93.33
12907;DHT22;6521;50.498;8.474;2023-11-21T08:31:07;8.12;93.11
12907;DHT22;6521;50.498;8.474;2023-11-21T08:33:38;8.17;93.19
12907;DHT22;6521;50.498;8.474;2023-11-21T08:36:09;8.21;93.02
12907;DHT22;6521;50.498;8.474;2023-11-21T08:38:41;8.27;92.71
12907;DHT22;6521;50.498;8.474;2023-11-21T08:41:12;8.24;92.66
12907;DHT22;6521;50.498;8.474;2023-11-21T08:43:42;8.30;92.59
12907;DHT22;6521;50.498;8.474;2023-11-21T08:46:13;8.27;92.40
12907;DHT22;6521;50.498;8.474;2023-11-21T08:48:44;8.29;92.50
12907;DHT22;6521;50.498;8.474;2023-11-21T08:51:15;8.31;92.42
12907;DHT22;6521;50.498;8.474;2023-11-21T08:53:46;8.34;92.44
12907;DHT22;6521;50.498;8.474;2023-11-21T08:56:18;8.37;92.23
12907;DHT22;6521;50.498;8.474;2023-11-21T08:58:50;8.41;92.20
12907;DHT22;6521;50.498;8.474;2023-11-21T09:01:21;8.44;92.07
12907;DHT22;6521;50.498;8.474;2023-11-21T09:03:52;8.44;92.21
12907;DHT22;6521;50.498;8.474;2023-11-21T09:06:22;8.48;92.16
12907;DHT22;6521;50.498;8.474;2023-11-21T09:08:53;8.52;92.04
12907;DHT22;6521;50.498;8.474;2023-11-21T09:11:23;8.61;91.73
12907;DHT22;6521;50.498;8.474;2023-11-21T09:13:55;8.61;91.68
12907;DHT22;6521;50.498;8.474;2023-11-21T09:16:28;8.62;91.96
12907;DHT22;6521;50.498;8.474;2023-11-21T09:18:59;8.69;91.99
12907;DHT22;6521;50.498;8.474;2023-11-21T09:21:30;8.79;92.01
12907;DHT22;6521;50.498;8.474;2023-11-21T09:24:00;8.86;91.58
12907;DHT22;6521;50.498;8.474;2023-11-21T09:26:31;8.83;91.35
12907;DHT22;6521;50.498;8.474;2023-11-21T09:29:02;8.72;91.11
12907;DHT22;6521;50.498;8.474;2023-11-21T09:31:35;8.81;91.15
12907;DHT22;6521;50.498;8.474;2023-11-21T09:34:06;8.81;91.20
12907;DHT22;6521;50.498;8.474;2023-11-21T09:36:37;8.93;91.45
12907;DHT22;6521;50.498;8.474;2023-11-21T09:39:09;9.06;91.44
12907;DHT22;6521;50.498;8.474;2023-11-21T09:41:50;9.20;91.30
12907;DHT22;6521;50.498;8.474;2023-11-21T09:44:39;9.19;90.47
12907;DHT22;6521;50.498;8.474;2023-11-21T09:47:15;9.23;90.64
12907;DHT22;6521;50.498;8.474;2023-11-21T09:49:47;9.30;90.56
12907;DHT22;6521;50.498;8.474;2023-11-21T09:52:26;9.36;90.48
12907;DHT22;6521;50.498;8.474;2023-11-21T09:54:56;9.47;90.33
12907;DHT22;6521;50.498;8.474;2023-11-21T09:57:31;9.51;89.73
12907;DHT22;6521;50.498;8.474;2023-11-21T10:00:02;9.52;88.96
12907;DHT22;6521;50.498;8.474;2023-11-21T10:02:36;9.64;89.43
12907;DHT22;6521;50.498;8.474;2023-11-21T10:05:08;9.73;89.12
12907;DHT22;6521;50.498;8.474;2023-11-21T10:07:43;9.85;88.88
12907;DHT22;6521;50.498;8.474;2023-11-21T10:10:17;9.85;88.65
12907;DHT22;6521;50.498;8.474;2023-11-21T10:12:56;9.92;88.87
12907;DHT22;6521;50.498;8.474;2023-11-21T10:15:27;10.15;87.78
12907;DHT22;6521;50.498;8.474;2023-11-21T10:17:58;10.16;87.30
12907;DHT22;6521;50.498;8.474;2023-11-21T10:20:29;10.18;87.59
12907;DHT22;6521;50.498;8.474;2023-11-21T10:23:00;10.18;87.36
12907;DHT22;6521;50.498;8.474;2023-11-21T10:25:34;10.18;86.96
12907;DHT22;6521;50.498;8.474;2023-11-21T10:28:07;10.13;86.92
12907;DHT22;6521;50.498;8.474;2023-11-21T10:30:38;10.15;87.16
12907;DHT22;6521;50.498;8.474;2023-11-21T10:33:09;10.23;86.77
12907;DHT22;6521;50.498;8.474;2023-11-21T10:35:47;10.32;86.86
12907;DHT22;6521;50.498;8.474;2023-11-21T10:38:21;10.22;86.23
12907;DHT22;6521;50.498;8.474;2023-11-21T10:40:54;10.28;86.20
12907;DHT22;6521;50.498;8.474;2023-11-21T10:43:25;10.32;85.82
12907;DHT22;6521;50.498;8.474;2023-11-21T10:45:58;10.32;85.85
12907;DHT22;6521;50.498;8.474;2023-11-21T10:48:31;10.46;86.20
12907;DHT22;6521;50.498;8.474;2023-11-21T10:51:06;10.52;86.02
12907;DHT22;6521;50.498;8.474;2023-11-21T10:53:39;10.59;85.74
12907;DHT22;6521;50.498;8.474;2023-11-21T10:56:14;10.76;85.80
12907;DHT22;6521;50.498;8.474;2023-11-21T10:58:51;10.90;84.75
12907;DHT22;6521;50.498;8.474;2023-11-21T11:01:23;11.03;83.85
12907;DHT22;6521;50.498;8.474;2023-11-21T11:03:56;11.26;83.73
12907;DHT22;6521;50.498;8.474;2023-11-21T11:06:28;11.58;83.51
12907;DHT22;6521;50.498;8.474;2023-11-21T11:09:00;11.75;81.17
12907;DHT22;6521;50.498;8.474;2023-11-21T11:11:32;11.66;81.12
12907;DHT22;6521;50.498;8.474;2023-11-21T11:14:03;11.47;81.02
12907;DHT22;6521;50.498;8.474;2023-11-21T11:16:34;11.36;81.43
12907;DHT22;6521;50.498;8.474;2023-11-21T11:19:05;11.28;81.59
12907;DHT22;6521;50.498;8.474;2023-11-21T11:24:31;11.29;81.89
12907;DHT22;6521;50.498;8.474;2023-11-21T11:30:08;11.28;81.55
12907;DHT22;6521;50.498;8.474;2023-11-21T11:32:46;11.21;81.93
12907;DHT22;6521;50.498;8.474;2023-11-21T11:35:34;11.28;82.17
12907;DHT22;6521;50.498;8.474;2023-11-21T11:38:09;11.34;82.76
12907;DHT22;6521;50.498;8.474;2023-11-21T11:40:41;11.34;82.25
12907;DHT22;6521;50.498;8.474;2023-11-21T11:43:25;11.35;81.61
12907;DHT22;6521;50.498;8.474;2023-11-21T11:45:56;11.43;82.28
12907;DHT22;6521;50.498;8.474;2023-11-21T11:48:27;11.55;81.77
12907;DHT22;6521;50.498;8.474;2023-11-21T11:51:05;11.47;81.02
12907;DHT22;6521;50.498;8.474;2023-11-21T11:53:42;11.39;81.61
12907;DHT22;6521;50.498;8.474;2023-11-21T11:58:57;11.32;81.80
12907;DHT22;6521;50.498;8.474;2023-11-21T12:01:31;11.34;81.73
12907;DHT22;6521;50.498;8.474;2023-11-21T12:06:47;11.24;81.55
12907;DHT22;6521;50.498;8.474;2023-11-21T12:09:22;11.19;81.36
12907;DHT22;6521;50.498;8.474;2023-11-21T12:11:53;11.08;81.25
12907;DHT22;6521;50.498;8.474;2023-11-21T12:14:25;10.94;81.61
12907;DHT22;6521;50.498;8.474;2023-11-21T12:16:56;10.77;82.12
12907;DHT22;6521;50.498;8.474;2023-11-21T12:19:27;10.63;82.31
12907;DHT22;6521;50.498;8.474;2023-11-21T12:21:59;10.45;82.85
12907;DHT22;6521;50.498;8.474;2023-11-21T12:24:29;10.38;83.24
12907;DHT22;6521;50.498;8.474;2023-11-21T12:27:00;10.32;83.58
12907;DHT22;6521;50.498;8.474;2023-11-21T12:29:31;10.30;82.67
12907;DHT22;6521;50.498;8.474;2023-11-21T12:32:03;10.20;82.95
12907;DHT22;6521;50.498;8.474;2023-11-21T12:34:35;10.10;83.39
12907;DHT22;6521;50.498;8.474;2023-11-21T12:37:05;10.01;83.91
12907;DHT22;6521;50.498;8.474;2023-11-21T12:39:36;9.97;84.14
12907;DHT22;6521;50.498;8.474;2023-11-21T12:42:06;9.98;84.48
12907;DHT22;6521;50.498;8.474;2023-11-21T12:44:38;9.88;84.12
12907;DHT22;6521;50.498;8.474;2023-11-21T12:47:16;9.81;84.34
12907;DHT22;6521;50.498;8.474;2023-11-21T12:49:47;9.78;83.81
12907;DHT22;6521;50.498;8.474;2023-11-21T12:52:19;9.70;84.64
12907;DHT22;6521;50.498;8.474;2023-11-21T12:54:49;9.70;84.78
12907;DHT22;6521;50.498;8.474;2023-11-21T12:57:20;9.67;84.91
12907;DHT22;6521;50.498;8.474;2023-11-21T12:59:51;9.65;85.45
12907;DHT22;6521;50.498;8.474;2023-11-21T13:02:30;9.65;85.75
12907;DHT22;6521;50.498;8.474;2023-11-21T13:05:00;9.65;86.10
12907;DHT22;6521;50.498;8.474;2023-11-21T13:07:42;9.62;86.50
12907;DHT22;6521;50.498;8.474;2023-11-21T13:10:17;9.64;86.49
12907;DHT22;6521;50.498;8.474;2023-11-21T13:12:48;9.62;86.55
12907;DHT22;6521;50.498;8.474;2023-11-21T13:15:19;9.61;86.63
12907;DHT22;6521;50.498;8.474;2023-11-21T13:17:49;9.58;86.98
12907;DHT22;6521;50.498;8.474;2023-11-21T13:20:21;9.55;87.08
12907;DHT22;6521;50.498;8.474;2023-11-21T13:22:53;9.47;87.21
12907;DHT22;6521;50.498;8.474;2023-11-21T13:25:25;9.48;87.50
12907;DHT22;6521;50.498;8.474;2023-11-21T13:27:58;9.47;87.68
12907;DHT22;6521;50.498;8.474;2023-11-21T13:30:32;9.51;87.65
12907;DHT22;6521;50.498;8.474;2023-11-21T13:33:06;9.48;87.82
12907;DHT22;6521;50.498;8.474;2023-11-21T13:35:38;9.47;88.14
12907;DHT22;6521;50.498;8.474;2023-11-21T13:38:14;9.43;88.03
12907;DHT22;6521;50.498;8.474;2023-11-21T13:40:48;9.46;88.08
12907;DHT22;6521;50.498;8.474;2023-11-21T13:43:22;9.47;88.01
12907;DHT22;6521;50.498;8.474;2023-11-21T13:45:54;9.51;88.08
12907;DHT22;6521;50.498;8.474;2023-11-21T13:48:37;9.54;87.95
12907;DHT22;6521;50.498;8.474;2023-11-21T13:51:19;9.60;87.76
12907;DHT22;6521;50.498;8.474;2023-11-21T13:53:50;9.60;87.50
12907;DHT22;6521;50.498;8.474;2023-11-21T13:56:23;9.61;87.38
12907;DHT22;6521;50.498;8.474;2023-11-21T13:58:54;9.55;87.45
12907;DHT22;6521;50.498;8.474;2023-11-21T14:01:26;9.54;87.49
12907;DHT22;6521;50.498;8.474;2023-11-21T14:04:01;9.58;87.46
12907;DHT22;6521;50.498;8.474;2023-11-21T14:06:39;9.51;87.07
12907;DHT22;6521;50.498;8.474;2023-11-21T14:09:21;9.41;87.38
12907;DHT22;6521;50.498;8.474;2023-11-21T14:12:06;9.36;87.62
12907;DHT22;6521;50.498;8.474;2023-11-21T14:14:38;9.39;87.56
12907;DHT22;6521;50.498;8.474;2023-11-21T14:17:09;9.36;87.54
12907;DHT22;6521;50.498;8.474;2023-11-21T14:19:41;9.26;87.38
12907;DHT22;6521;50.498;8.474;2023-11-21T14:22:13;9.24;87.51
12907;DHT22;6521;50.498;8.474;2023-11-21T14:24:44;9.20;87.69
12907;DHT22;6521;50.498;8.474;2023-11-21T14:27:17;9.20;87.60
12907;DHT22;6521;50.498;8.474;2023-11-21T14:29:47;9.16;87.62
12907;DHT22;6521;50.498;8.474;2023-11-21T14:32:19;9.18;87.53
12907;DHT22;6521;50.498;8.474;2023-11-21T14:34:50;9.15;87.62
12907;DHT22;6521;50.498;8.474;2023-11-21T14:37:21;9.13;87.73
12907;DHT22;6521;50.498;8.474;2023-11-21T14:39:52;9.10;87.82
12907;DHT22;6521;50.498;8.474;2023-11-21T14:42:23;9.10;87.82
12907;DHT22;6521;50.498;8.474;2023-11-21T14:44:56;9.12;87.86
12907;DHT22;6521;50.498;8.474;2023-11-21T14:47:30;9.08;87.93
12907;DHT22;6521;50.498;8.474;2023-11-21T14:50:03;9.06;87.98
12907;DHT22;6521;50.498;8.474;2023-11-21T14:52:53;9.09;88.06
12907;DHT22;6521;50.498;8.474;2023-11-21T14:55:29;9.09;88.01
12907;DHT22;6521;50.498;8.474;2023-11-21T14:58:09;9.03;88.19
12907;DHT22;6521;50.498;8.474;2023-11-21T15:00:43;9.08;88.27
12907;DHT22;6521;50.498;8.474;2023-11-21T15:03:15;9.10;88.16
12907;DHT22;6521;50.498;8.474;2023-11-21T15:06:08;9.05;88.23
12907;DHT22;6521;50.498;8.474;2023-11-21T15:08:57;9.08;88.32
12907;DHT22;6521;50.498;8.474;2023-11-21T15:11:37;9.03;88.23
12907;DHT22;6521;50.498;8.474;2023-11-21T15:14:09;9.02;88.41
12907;DHT22;6521;50.498;8.474;2023-11-21T15:16:41;9.02;88.36
12907;DHT22;6521;50.498;8.474;2023-11-21T15:19:16;8.99;88.37
12907;DHT22;6521;50.498;8.474;2023-11-21T15:21:48;8.98;88.48
12907;DHT22;6521;50.498;8.474;2023-11-21T15:24:19;8.96;88.53
12907;DHT22;6521;50.498;8.474;2023-11-21T15:26:50;8.99;88.43
12907;DHT22;6521;50.498;8.474;2023-11-21T15:29:21;8.98;88.46
12907;DHT22;6521;50.498;8.474;2023-11-21T15:31:52;8.98;88.42
12907;DHT22;6521;50.498;8.474;2023-11-21T15:34:26;8.95;88.36
12907;DHT22;6521;50.498;8.474;2023-11-21T15:36:59;8.95;88.39
12907;DHT22;6521;50.498;8.474;2023-11-21T15:39:30;8.91;88.56
12907;DHT22;6521;50.498;8.474;2023-11-21T15:42:01;8.88;88.63
12907;DHT22;6521;50.498;8.474;2023-11-21T15:44:32;8.82;88.70
12907;DHT22;6521;50.498;8.474;2023-11-21T15:47:04;8.81;88.81
12907;DHT22;6521;50.498;8.474;2023-11-21T15:49:35;8.81;88.95
12907;DHT22;6521;50.498;8.474;2023-11-21T15:52:07;8.79;89.16
12907;DHT22;6521;50.498;8.474;2023-11-21T15:54:40;8.76;89.40
12907;DHT22;6521;50.498;8.474;2023-11-21T15:57:11;8.73;89.40
12907;DHT22;6521;50.498;8.474;2023-11-21T15:59:41;8.75;89.40
12907;DHT22;6521;50.498;8.474;2023-11-21T16:02:13;8.71;89.58
12907;DHT22;6521;50.498;8.474;2023-11-21T16:04:46;8.71;89.74
12907;DHT22;6521;50.498;8.474;2023-11-21T16:07:17;8.67;89.84
12907;DHT22;6521;50.498;8.474;2023-11-21T16:09:48;8.65;89.89
12907;DHT22;6521;50.498;8.474;2023-11-21T16:12:20;8.67;89.97
12907;DHT22;6521;50.498;8.474;2023-11-21T16:14:51;8.65;89.86
12907;DHT22;6521;50.498;8.474;2023-11-21T16:17:22;8.65;90.08
12907;DHT22;6521;50.498;8.474;2023-11-21T16:19:53;8.60;90.30
12907;DHT22;6521;50.498;8.474;2023-11-21T16:22:26;8.62;90.28
12907;DHT22;6521;50.498;8.474;2023-11-21T16:24:59;8.60;90.27
12907;DHT22;6521;50.498;8.474;2023-11-21T16:27:30;8.61;90.29
12907;DHT22;6521;50.498;8.474;2023-11-21T16:30:04;8.58;90.36
12907;DHT22;6521;50.498;8.474;2023-11-21T16:32:35;8.57;90.39
12907;DHT22;6521;50.498;8.474;2023-11-21T16:35:07;8.52;90.20
12907;DHT22;6521;50.498;8.474;2023-11-21T16:37:39;8.52;90.26
12907;DHT22;6521;50.498;8.474;2023-11-21T16:40:10;8.47;90.26
12907;DHT22;6521;50.498;8.474;2023-11-21T16:42:41;8.45;90.19